PWSweather.com
Personal Weather Stations
Station Observations
ELGHEKO
El Gheko Neighborhood Association, Tucson, AZ 85710

El Gheko Neighborhood AssociationTucson, AZ 85710

Lat: 32.226108, Lon: -110.84443

Elevation: 2598

Station Type: Davis 6153 Vantage Pro 2

http://www.elgheko.us

High Low Average
Temperature 92.4°F33.6°C 69.5°F20.8°C 77.3°F25.2°C
Dew Point 68.5°F20.3°C 60.6°F15.9°C 64.6°F18.1°C
Winds 12.0 mph 19.3 kmh Calm Calm 3.0 mph SSW4.8 kmh SSW
Wind Gusts 25.0 mph40.2 kmh -- 7.0 mph11.3 kmh
Humidity 86% 37% 67%
Pressure 29.91 in1012.9 mb 29.79 in1008.8 mb -
Precipitation 0.38 in9.7 mm - -
Hour Temp Dew Point Humidity Winds Wind Gusts Pressure Precip Precip Rate Daily Precip Total
12:00 AM 81.0°F27.2°C 62.3°F16.8°C 53% 3.0 mph SW4.8 kmh SW 4.0 mph6.4 kmh 29.88 in1011.9 mb 0.00 in0.0 mm 0.00 in0.0 mm 0.00 in0.0 mm
12:05 AM 80.9°F27.2°C 61.6°F16.4°C 52% 2.0 mph SW3.2 kmh SW 5.0 mph8.0 kmh 29.88 in1011.9 mb 0.00 in0.0 mm 0.00 in0.0 mm 0.00 in0.0 mm
12:10 AM 81.0°F27.2°C 60.6°F15.9°C 50% 2.0 mph SW3.2 kmh SW 5.0 mph8.0 kmh 29.88 in1011.9 mb 0.00 in0.0 mm 0.00 in0.0 mm 0.00 in0.0 mm
12:15 AM 81.0°F27.2°C 60.6°F15.9°C 50% 2.0 mph SW3.2 kmh SW 4.0 mph6.4 kmh 29.88 in1011.9 mb 0.00 in0.0 mm 0.00 in0.0 mm 0.00 in0.0 mm
12:20 AM 81.1°F27.3°C 60.7°F15.9°C 50% 2.0 mph SW3.2 kmh SW 4.0 mph6.4 kmh 29.88 in1011.9 mb 0.00 in0.0 mm 0.00 in0.0 mm 0.00 in0.0 mm
12:25 AM 81.2°F27.3°C 60.8°F16.0°C 50% 2.0 mph SW3.2 kmh SW 3.0 mph4.8 kmh 29.88 in1011.9 mb 0.00 in0.0 mm 0.00 in0.0 mm 0.00 in0.0 mm
12:30 AM 81.2°F27.3°C 60.8°F16.0°C 50% 2.0 mph WSW3.2 kmh WSW 4.0 mph6.4 kmh 29.87 in1011.5 mb 0.00 in0.0 mm 0.00 in0.0 mm 0.00 in0.0 mm
12:35 AM 81.3°F27.4°C 62.0°F16.7°C 52% 2.0 mph WSW3.2 kmh WSW 4.0 mph6.4 kmh 29.87 in1011.5 mb 0.00 in0.0 mm 0.00 in0.0 mm 0.00 in0.0 mm
12:40 AM 81.3°F27.4°C 63.6°F17.6°C 55% 2.0 mph W3.2 kmh W 8.0 mph12.9 kmh 29.87 in1011.5 mb 0.00 in0.0 mm 0.00 in0.0 mm 0.00 in0.0 mm
12:45 AM 81.1°F27.3°C 64.4°F18.0°C 57% 3.0 mph NW4.8 kmh NW 8.0 mph12.9 kmh 29.87 in1011.5 mb 0.00 in0.0 mm 0.00 in0.0 mm 0.00 in0.0 mm
12:50 AM 80.5°F26.9°C 65.8°F18.8°C 61% 3.0 mph NNW4.8 kmh NNW 9.0 mph14.5 kmh 29.87 in1011.5 mb 0.00 in0.0 mm 0.00 in0.0 mm 0.00 in0.0 mm
12:55 AM 80.1°F26.7°C 65.9°F18.8°C 62% 2.0 mph N3.2 kmh N 9.0 mph14.5 kmh 29.87 in1011.5 mb 0.00 in0.0 mm 0.00 in0.0 mm 0.00 in0.0 mm
01:00 AM 79.6°F26.4°C 65.9°F18.8°C 63% 2.0 mph N3.2 kmh N 3.0 mph4.8 kmh 29.87 in1011.5 mb 0.00 in0.0 mm 0.00 in0.0 mm 0.00 in0.0 mm
01:05 AM 79.1°F26.2°C 65.4°F18.6°C 63% 2.0 mph N3.2 kmh N 5.0 mph8.0 kmh 29.87 in1011.5 mb 0.00 in0.0 mm 0.00 in0.0 mm 0.00 in0.0 mm
01:10 AM 78.5°F25.8°C 65.3°F18.5°C 64% 3.0 mph NW4.8 kmh NW 6.0 mph9.7 kmh 29.88 in1011.9 mb 0.00 in0.0 mm 0.00 in0.0 mm 0.00 in0.0 mm
01:15 AM 78.1°F25.6°C 65.4°F18.6°C 65% 4.0 mph NW6.4 kmh NW 8.0 mph12.9 kmh 29.88 in1011.9 mb 0.00 in0.0 mm 0.00 in0.0 mm 0.00 in0.0 mm
01:20 AM 77.8°F25.4°C 65.1°F18.4°C 65% 3.0 mph NW4.8 kmh NW 8.0 mph12.9 kmh 29.87 in1011.5 mb 0.00 in0.0 mm 0.00 in0.0 mm 0.00 in0.0 mm
01:25 AM 77.6°F25.3°C 64.5°F18.1°C 64% 3.0 mph WNW4.8 kmh WNW 8.0 mph12.9 kmh 29.87 in1011.5 mb 0.00 in0.0 mm 0.00 in0.0 mm 0.00 in0.0 mm
01:30 AM 77.4°F25.2°C 64.3°F17.9°C 64% 2.0 mph WSW3.2 kmh WSW 6.0 mph9.7 kmh 29.87 in1011.5 mb 0.00 in0.0 mm 0.00 in0.0 mm 0.00 in0.0 mm
01:35 AM 77.2°F25.1°C 63.6°F17.6°C 63% 2.0 mph WSW3.2 kmh WSW 6.0 mph9.7 kmh 29.87 in1011.5 mb 0.00 in0.0 mm 0.00 in0.0 mm 0.00 in0.0 mm
01:40 AM 77.0°F25.0°C 63.0°F17.2°C 62% 3.0 mph WSW4.8 kmh WSW 6.0 mph9.7 kmh 29.87 in1011.5 mb 0.00 in0.0 mm 0.00 in0.0 mm 0.00 in0.0 mm
01:45 AM 77.0°F25.0°C 63.0°F17.2°C 62% 3.0 mph WSW4.8 kmh WSW 8.0 mph12.9 kmh 29.87 in1011.5 mb 0.00 in0.0 mm 0.00 in0.0 mm 0.00 in0.0 mm
01:50 AM 77.0°F25.0°C 62.5°F16.9°C 61% 4.0 mph WSW6.4 kmh WSW 8.0 mph12.9 kmh 29.88 in1011.9 mb 0.00 in0.0 mm 0.00 in0.0 mm 0.00 in0.0 mm
01:55 AM 77.1°F25.1°C 63.1°F17.3°C 62% 4.0 mph WSW6.4 kmh WSW 9.0 mph14.5 kmh 29.88 in1011.9 mb 0.00 in0.0 mm 0.00 in0.0 mm 0.00 in0.0 mm
02:00 AM 77.1°F25.1°C 62.6°F17.0°C 61% 4.0 mph WSW6.4 kmh WSW 9.0 mph14.5 kmh 29.88 in1011.9 mb 0.00 in0.0 mm 0.00 in0.0 mm 0.00 in0.0 mm
02:05 AM 77.1°F25.1°C 63.1°F17.3°C 62% 4.0 mph WSW6.4 kmh WSW 8.0 mph12.9 kmh 29.89 in1012.2 mb 0.00 in0.0 mm 0.00 in0.0 mm 0.00 in0.0 mm
02:10 AM 77.0°F25.0°C 63.0°F17.2°C 62% 4.0 mph WSW6.4 kmh WSW 8.0 mph12.9 kmh 29.89 in1012.2 mb 0.00 in0.0 mm 0.00 in0.0 mm 0.00 in0.0 mm
02:15 AM 76.9°F24.9°C 63.3°F17.4°C 63% 4.0 mph WSW6.4 kmh WSW 8.0 mph12.9 kmh 29.89 in1012.2 mb 0.00 in0.0 mm 0.00 in0.0 mm 0.00 in0.0 mm
02:20 AM 76.7°F24.8°C 63.2°F17.3°C 63% 4.0 mph WSW6.4 kmh WSW 8.0 mph12.9 kmh 29.89 in1012.2 mb 0.00 in0.0 mm 0.00 in0.0 mm 0.00 in0.0 mm
02:25 AM 76.4°F24.7°C 63.3°F17.4°C 64% 3.0 mph WSW4.8 kmh WSW 8.0 mph12.9 kmh 29.89 in1012.2 mb 0.00 in0.0 mm 0.00 in0.0 mm 0.00 in0.0 mm
02:30 AM 76.1°F24.5°C 63.5°F17.5°C 65% 5.0 mph W8.0 kmh W 13.0 mph20.9 kmh 29.89 in1012.2 mb 0.00 in0.0 mm 0.00 in0.0 mm 0.00 in0.0 mm
02:35 AM 75.5°F24.2°C 63.8°F17.7°C 67% 6.0 mph WNW9.7 kmh WNW 13.0 mph20.9 kmh 29.89 in1012.2 mb 0.00 in0.0 mm 0.00 in0.0 mm 0.00 in0.0 mm
02:40 AM 75.1°F23.9°C 63.8°F17.7°C 68% 6.0 mph WNW9.7 kmh WNW 12.0 mph19.3 kmh 29.89 in1012.2 mb 0.00 in0.0 mm 0.00 in0.0 mm 0.00 in0.0 mm
02:45 AM 74.5°F23.6°C 63.7°F17.6°C 69% 6.0 mph NW9.7 kmh NW 13.0 mph20.9 kmh 29.89 in1012.2 mb 0.00 in0.0 mm 0.00 in0.0 mm 0.00 in0.0 mm
02:50 AM 74.2°F23.4°C 63.4°F17.4°C 69% 6.0 mph NW9.7 kmh NW 13.0 mph20.9 kmh 29.89 in1012.2 mb 0.00 in0.0 mm 0.00 in0.0 mm 0.00 in0.0 mm
02:55 AM 74.0°F23.3°C 63.6°F17.6°C 70% 5.0 mph WNW8.0 kmh WNW 11.0 mph17.7 kmh 29.88 in1011.9 mb 0.00 in0.0 mm 0.00 in0.0 mm 0.00 in0.0 mm
03:00 AM 73.8°F23.2°C 63.4°F17.4°C 70% 4.0 mph WNW6.4 kmh WNW 10.0 mph16.1 kmh 29.88 in1011.9 mb 0.00 in0.0 mm 0.00 in0.0 mm 0.00 in0.0 mm
03:05 AM 73.7°F23.2°C 63.7°F17.6°C 71% 3.0 mph WNW4.8 kmh WNW 7.0 mph11.3 kmh 29.89 in1012.2 mb 0.00 in0.0 mm 0.00 in0.0 mm 0.00 in0.0 mm
03:10 AM 73.6°F23.1°C 63.6°F17.6°C 71% 4.0 mph W6.4 kmh W 10.0 mph16.1 kmh 29.89 in1012.2 mb 0.00 in0.0 mm 0.00 in0.0 mm 0.00 in0.0 mm
03:15 AM 73.5°F23.1°C 63.1°F17.3°C 70% 4.0 mph WNW6.4 kmh WNW 10.0 mph16.1 kmh 29.89 in1012.2 mb 0.00 in0.0 mm 0.00 in0.0 mm 0.00 in0.0 mm
03:20 AM 73.4°F23.0°C 63.0°F17.2°C 70% 4.0 mph W6.4 kmh W 10.0 mph16.1 kmh 29.89 in1012.2 mb 0.00 in0.0 mm 0.00 in0.0 mm 0.00 in0.0 mm
03:25 AM 73.4°F23.0°C 63.0°F17.2°C 70% 4.0 mph W6.4 kmh W 9.0 mph14.5 kmh 29.89 in1012.2 mb 0.00 in0.0 mm 0.00 in0.0 mm 0.00 in0.0 mm
03:30 AM 73.3°F22.9°C 62.5°F16.9°C 69% 4.0 mph WNW6.4 kmh WNW 8.0 mph12.9 kmh 29.89 in1012.2 mb 0.00 in0.0 mm 0.00 in0.0 mm 0.00 in0.0 mm
03:35 AM 73.3°F22.9°C 62.5°F16.9°C 69% 4.0 mph W6.4 kmh W 7.0 mph11.3 kmh 29.89 in1012.2 mb 0.00 in0.0 mm 0.00 in0.0 mm 0.00 in0.0 mm
03:40 AM 73.3°F22.9°C 62.9°F17.2°C 70% 4.0 mph W6.4 kmh W 10.0 mph16.1 kmh 29.89 in1012.2 mb 0.00 in0.0 mm 0.00 in0.0 mm 0.00 in0.0 mm
03:45 AM 73.1°F22.8°C 63.1°F17.3°C 71% 4.0 mph WSW6.4 kmh WSW 10.0 mph16.1 kmh 29.89 in1012.2 mb 0.00 in0.0 mm 0.00 in0.0 mm 0.00 in0.0 mm
03:50 AM 72.8°F22.7°C 63.2°F17.3°C 72% 4.0 mph WSW6.4 kmh WSW 9.0 mph14.5 kmh 29.89 in1012.2 mb 0.00 in0.0 mm 0.00 in0.0 mm 0.00 in0.0 mm
03:55 AM 72.4°F22.4°C 63.6°F17.6°C 74% 5.0 mph WSW8.0 kmh WSW 9.0 mph14.5 kmh 29.89 in1012.2 mb 0.00 in0.0 mm 0.00 in0.0 mm 0.00 in0.0 mm
04:00 AM 72.0°F22.2°C 63.6°F17.6°C 75% 4.0 mph WSW6.4 kmh WSW 8.0 mph12.9 kmh 29.89 in1012.2 mb 0.00 in0.0 mm 0.00 in0.0 mm 0.00 in0.0 mm
04:05 AM 71.5°F21.9°C 63.5°F17.5°C 76% 3.0 mph WSW4.8 kmh WSW 7.0 mph11.3 kmh 29.89 in1012.2 mb 0.00 in0.0 mm 0.00 in0.0 mm 0.00 in0.0 mm
04:10 AM 71.2°F21.8°C 64.0°F17.8°C 78% 2.0 mph WSW3.2 kmh WSW 5.0 mph8.0 kmh 29.89 in1012.2 mb 0.00 in0.0 mm 0.00 in0.0 mm 0.00 in0.0 mm
04:15 AM 70.9°F21.6°C 64.1°F17.8°C 79% 3.0 mph WSW4.8 kmh WSW 8.0 mph12.9 kmh 29.89 in1012.2 mb 0.00 in0.0 mm 0.00 in0.0 mm 0.00 in0.0 mm
04:20 AM 70.6°F21.4°C 63.8°F17.7°C 79% 3.0 mph WSW4.8 kmh WSW 8.0 mph12.9 kmh 29.89 in1012.2 mb 0.00 in0.0 mm 0.00 in0.0 mm 0.00 in0.0 mm
04:25 AM 70.3°F21.3°C 63.8°F17.7°C 80% 3.0 mph WSW4.8 kmh WSW 8.0 mph12.9 kmh 29.89 in1012.2 mb 0.00 in0.0 mm 0.00 in0.0 mm 0.00 in0.0 mm
04:30 AM 70.2°F21.2°C 64.1°F17.8°C 81% 3.0 mph WSW4.8 kmh WSW 8.0 mph12.9 kmh 29.89 in1012.2 mb 0.00 in0.0 mm 0.00 in0.0 mm 0.00 in0.0 mm
04:35 AM 70.0°F21.1°C 63.9°F17.7°C 81% 2.0 mph WSW3.2 kmh WSW 6.0 mph9.7 kmh 29.89 in1012.2 mb 0.00 in0.0 mm 0.00 in0.0 mm 0.00 in0.0 mm
04:40 AM 70.0°F21.1°C 64.2°F17.9°C 82% 2.0 mph WSW3.2 kmh WSW 6.0 mph9.7 kmh 29.89 in1012.2 mb 0.00 in0.0 mm 0.00 in0.0 mm 0.00 in0.0 mm
04:45 AM 70.0°F21.1°C 64.2°F17.9°C 82% 2.0 mph WSW3.2 kmh WSW 4.0 mph6.4 kmh 29.89 in1012.2 mb 0.00 in0.0 mm 0.00 in0.0 mm 0.00 in0.0 mm
04:50 AM 69.9°F21.1°C 64.2°F17.9°C 82% 2.0 mph WSW3.2 kmh WSW 4.0 mph6.4 kmh 29.89 in1012.2 mb 0.00 in0.0 mm 0.00 in0.0 mm 0.00 in0.0 mm
04:55 AM 69.8°F21.0°C 64.1°F17.8°C 82% 2.0 mph WSW3.2 kmh WSW 4.0 mph6.4 kmh 29.89 in1012.2 mb 0.00 in0.0 mm 0.00 in0.0 mm 0.00 in0.0 mm
05:00 AM 69.8°F21.0°C 64.1°F17.8°C 82% 1.0 mph WSW1.6 kmh WSW 4.0 mph6.4 kmh 29.89 in1012.2 mb 0.00 in0.0 mm 0.00 in0.0 mm 0.00 in0.0 mm
05:05 AM 69.8°F21.0°C 64.1°F17.8°C 82% 1.0 mph WSW1.6 kmh WSW 4.0 mph6.4 kmh 29.89 in1012.2 mb 0.00 in0.0 mm 0.00 in0.0 mm 0.00 in0.0 mm
05:10 AM 69.8°F21.0°C 64.4°F18.0°C 83% 1.0 mph SW1.6 kmh SW 5.0 mph8.0 kmh 29.90 in1012.5 mb 0.00 in0.0 mm 0.00 in0.0 mm 0.00 in0.0 mm
05:15 AM 69.8°F21.0°C 64.1°F17.8°C 82% 2.0 mph SSW3.2 kmh SSW 6.0 mph9.7 kmh 29.90 in1012.5 mb 0.00 in0.0 mm 0.00 in0.0 mm 0.00 in0.0 mm
05:20 AM 69.7°F20.9°C 64.0°F17.8°C 82% 3.0 mph SSW4.8 kmh SSW 6.0 mph9.7 kmh 29.89 in1012.2 mb 0.00 in0.0 mm 0.00 in0.0 mm 0.00 in0.0 mm
05:25 AM 69.7°F20.9°C 64.0°F17.8°C 82% 2.0 mph SSW3.2 kmh SSW 5.0 mph8.0 kmh 29.89 in1012.2 mb 0.00 in0.0 mm 0.00 in0.0 mm 0.00 in0.0 mm
05:30 AM 69.6°F20.9°C 63.5°F17.5°C 81% 1.0 mph SSW1.6 kmh SSW 4.0 mph6.4 kmh 29.89 in1012.2 mb 0.00 in0.0 mm 0.00 in0.0 mm 0.00 in0.0 mm
05:35 AM 69.6°F20.9°C 63.5°F17.5°C 81% 1.0 mph S1.6 kmh S 3.0 mph4.8 kmh 29.90 in1012.5 mb 0.00 in0.0 mm 0.00 in0.0 mm 0.00 in0.0 mm
05:40 AM 69.6°F20.9°C 63.5°F17.5°C 81% 1.0 mph S1.6 kmh S 3.0 mph4.8 kmh 29.90 in1012.5 mb 0.00 in0.0 mm 0.00 in0.0 mm 0.00 in0.0 mm
05:45 AM 69.6°F20.9°C 63.5°F17.5°C 81% 1.0 mph S1.6 kmh S 3.0 mph4.8 kmh 29.90 in1012.5 mb 0.00 in0.0 mm 0.00 in0.0 mm 0.00 in0.0 mm
05:50 AM 69.5°F20.8°C 63.4°F17.4°C 81% Calm Calm 2.0 mph3.2 kmh 29.91 in1012.9 mb 0.00 in0.0 mm 0.00 in0.0 mm 0.00 in0.0 mm
05:55 AM 69.6°F20.9°C 63.5°F17.5°C 81% Calm Calm 2.0 mph3.2 kmh 29.91 in1012.9 mb 0.00 in0.0 mm 0.00 in0.0 mm 0.00 in0.0 mm
06:00 AM 69.6°F20.9°C 63.5°F17.5°C 81% Calm Calm 2.0 mph3.2 kmh 29.90 in1012.5 mb 0.00 in0.0 mm 0.00 in0.0 mm 0.00 in0.0 mm
06:05 AM 69.6°F20.9°C 63.5°F17.5°C 81% 1.0 mph S1.6 kmh S 2.0 mph3.2 kmh 29.90 in1012.5 mb 0.00 in0.0 mm 0.00 in0.0 mm 0.00 in0.0 mm
06:10 AM 69.6°F20.9°C 63.5°F17.5°C 81% 1.0 mph S1.6 kmh S 2.0 mph3.2 kmh 29.90 in1012.5 mb 0.00 in0.0 mm 0.00 in0.0 mm 0.00 in0.0 mm
06:15 AM 69.6°F20.9°C 63.5°F17.5°C 81% Calm Calm 1.0 mph1.6 kmh 29.90 in1012.5 mb 0.00 in0.0 mm 0.00 in0.0 mm 0.00 in0.0 mm
06:20 AM 69.7°F20.9°C 63.3°F17.4°C 80% Calm Calm 1.0 mph1.6 kmh 29.90 in1012.5 mb 0.00 in0.0 mm 0.00 in0.0 mm 0.00 in0.0 mm
06:25 AM 69.7°F20.9°C 63.3°F17.4°C 80% Calm Calm 1.0 mph1.6 kmh 29.91 in1012.9 mb 0.00 in0.0 mm 0.00 in0.0 mm 0.00 in0.0 mm
06:30 AM 69.8°F21.0°C 63.3°F17.4°C 80% Calm Calm 1.0 mph1.6 kmh 29.90 in1012.5 mb 0.00 in0.0 mm 0.00 in0.0 mm 0.00 in0.0 mm
06:35 AM 69.9°F21.1°C 63.4°F17.4°C 80% Calm Calm 1.0 mph1.6 kmh 29.90 in1012.5 mb 0.00 in0.0 mm 0.00 in0.0 mm 0.00 in0.0 mm
06:40 AM 70.1°F21.2°C 63.6°F17.6°C 80% Calm Calm 2.0 mph3.2 kmh 29.90 in1012.5 mb 0.00 in0.0 mm 0.00 in0.0 mm 0.00 in0.0 mm
06:45 AM 70.3°F21.3°C 63.8°F17.7°C 80% 1.0 mph S1.6 kmh S 2.0 mph3.2 kmh 29.90 in1012.5 mb 0.00 in0.0 mm 0.00 in0.0 mm 0.00 in0.0 mm
06:50 AM 70.5°F21.4°C 63.7°F17.6°C 79% 1.0 mph SSE1.6 kmh SSE 2.0 mph3.2 kmh 29.90 in1012.5 mb 0.00 in0.0 mm 0.00 in0.0 mm 0.00 in0.0 mm
06:55 AM 70.8°F21.6°C 64.3°F17.9°C 80% 1.0 mph E1.6 kmh E 4.0 mph6.4 kmh 29.90 in1012.5 mb 0.00 in0.0 mm 0.00 in0.0 mm 0.00 in0.0 mm
07:00 AM 71.1°F21.7°C 64.6°F18.1°C 80% 1.0 mph NE1.6 kmh NE 4.0 mph6.4 kmh 29.91 in1012.9 mb 0.00 in0.0 mm 0.00 in0.0 mm 0.00 in0.0 mm
07:05 AM 71.5°F21.9°C 65.0°F18.3°C 80% 2.0 mph NNE3.2 kmh NNE 5.0 mph8.0 kmh 29.91 in1012.9 mb 0.00 in0.0 mm 0.00 in0.0 mm 0.00 in0.0 mm
07:10 AM 71.6°F22.0°C 65.1°F18.4°C 80% 1.0 mph NNE1.6 kmh NNE 5.0 mph8.0 kmh 29.90 in1012.5 mb 0.00 in0.0 mm 0.00 in0.0 mm 0.00 in0.0 mm
07:15 AM 71.7°F22.1°C 65.2°F18.4°C 80% Calm Calm 2.0 mph3.2 kmh 29.91 in1012.9 mb 0.00 in0.0 mm 0.00 in0.0 mm 0.00 in0.0 mm
07:20 AM 71.9°F22.2°C 65.0°F18.3°C 79% Calm Calm 2.0 mph3.2 kmh 29.91 in1012.9 mb 0.00 in0.0 mm 0.00 in0.0 mm 0.00 in0.0 mm
07:25 AM 72.0°F22.2°C 65.1°F18.4°C 79% Calm Calm 2.0 mph3.2 kmh 29.91 in1012.9 mb 0.00 in0.0 mm 0.00 in0.0 mm 0.00 in0.0 mm
07:30 AM 72.1°F22.3°C 65.2°F18.4°C 79% Calm Calm 1.0 mph1.6 kmh 29.91 in1012.9 mb 0.00 in0.0 mm 0.00 in0.0 mm 0.00 in0.0 mm
07:35 AM 72.2°F22.3°C 65.3°F18.5°C 79% 1.0 mph NE1.6 kmh NE 3.0 mph4.8 kmh 29.91 in1012.9 mb 0.00 in0.0 mm 0.00 in0.0 mm 0.00 in0.0 mm
07:40 AM 72.2°F22.3°C 65.0°F18.3°C 78% 1.0 mph NE1.6 kmh NE 3.0 mph4.8 kmh 29.91 in1012.9 mb 0.00 in0.0 mm 0.00 in0.0 mm 0.00 in0.0 mm
07:45 AM 72.4°F22.4°C 65.2°F18.4°C 78% 1.0 mph NE1.6 kmh NE 2.0 mph3.2 kmh 29.91 in1012.9 mb 0.00 in0.0 mm 0.00 in0.0 mm 0.00 in0.0 mm
07:50 AM 72.5°F22.5°C 65.2°F18.4°C 78% Calm Calm 2.0 mph3.2 kmh 29.91 in1012.9 mb 0.00 in0.0 mm 0.00 in0.0 mm 0.00 in0.0 mm
07:55 AM 72.8°F22.7°C 65.2°F18.4°C 77% Calm Calm 3.0 mph4.8 kmh 29.91 in1012.9 mb 0.00 in0.0 mm 0.00 in0.0 mm 0.00 in0.0 mm
08:00 AM 73.0°F22.8°C 65.4°F18.6°C 77% Calm Calm 3.0 mph4.8 kmh 29.91 in1012.9 mb 0.00 in0.0 mm 0.00 in0.0 mm 0.00 in0.0 mm
08:05 AM 73.3°F22.9°C 64.9°F18.3°C 75% Calm Calm 2.0 mph3.2 kmh 29.91 in1012.9 mb 0.00 in0.0 mm 0.00 in0.0 mm 0.00 in0.0 mm
08:10 AM 73.6°F23.1°C 65.2°F18.4°C 75% Calm Calm 2.0 mph3.2 kmh 29.91 in1012.9 mb 0.00 in0.0 mm 0.00 in0.0 mm 0.00 in0.0 mm
08:15 AM 74.0°F23.3°C 65.2°F18.4°C 74% Calm Calm 2.0 mph3.2 kmh 29.91 in1012.9 mb 0.00 in0.0 mm 0.00 in0.0 mm 0.00 in0.0 mm
08:20 AM 74.5°F23.6°C 65.7°F18.7°C 74% 1.0 mph NE1.6 kmh NE 3.0 mph4.8 kmh 29.91 in1012.9 mb 0.00 in0.0 mm 0.00 in0.0 mm 0.00 in0.0 mm
08:25 AM 75.2°F24.0°C 65.6°F18.7°C 72% 1.0 mph NE1.6 kmh NE 4.0 mph6.4 kmh 29.91 in1012.9 mb 0.00 in0.0 mm 0.00 in0.0 mm 0.00 in0.0 mm
08:30 AM 75.9°F24.4°C 65.8°F18.8°C 71% 2.0 mph E3.2 kmh E 5.0 mph8.0 kmh 29.91 in1012.9 mb 0.00 in0.0 mm 0.00 in0.0 mm 0.00 in0.0 mm
08:35 AM 76.7°F24.8°C 65.8°F18.8°C 69% 2.0 mph SSE3.2 kmh SSE 5.0 mph8.0 kmh 29.91 in1012.9 mb 0.00 in0.0 mm 0.00 in0.0 mm 0.00 in0.0 mm
08:40 AM 77.4°F25.2°C 66.0°F18.9°C 68% 2.0 mph S3.2 kmh S 5.0 mph8.0 kmh 29.91 in1012.9 mb 0.00 in0.0 mm 0.00 in0.0 mm 0.00 in0.0 mm
08:45 AM 78.4°F25.8°C 65.7°F18.7°C 65% 1.0 mph S1.6 kmh S 5.0 mph8.0 kmh 29.91 in1012.9 mb 0.00 in0.0 mm 0.00 in0.0 mm 0.00 in0.0 mm
08:50 AM 79.1°F26.2°C 65.9°F18.8°C 64% 1.0 mph S1.6 kmh S 5.0 mph8.0 kmh 29.91 in1012.9 mb 0.00 in0.0 mm 0.00 in0.0 mm 0.00 in0.0 mm
08:55 AM 79.9°F26.6°C 65.2°F18.4°C 61% 1.0 mph S1.6 kmh S 3.0 mph4.8 kmh 29.91 in1012.9 mb 0.00 in0.0 mm 0.00 in0.0 mm 0.00 in0.0 mm
09:00 AM 80.3°F26.8°C 65.1°F18.4°C 60% 1.0 mph S1.6 kmh S 3.0 mph4.8 kmh 29.91 in1012.9 mb 0.00 in0.0 mm 0.00 in0.0 mm 0.00 in0.0 mm
09:05 AM 80.7°F27.1°C 65.0°F18.3°C 59% 2.0 mph SW3.2 kmh SW 4.0 mph6.4 kmh 29.91 in1012.9 mb 0.00 in0.0 mm 0.00 in0.0 mm 0.00 in0.0 mm
09:10 AM 80.8°F27.1°C 64.6°F18.1°C 58% 2.0 mph WSW3.2 kmh WSW 4.0 mph6.4 kmh 29.91 in1012.9 mb 0.00 in0.0 mm 0.00 in0.0 mm 0.00 in0.0 mm
09:15 AM 81.1°F27.3°C 64.4°F18.0°C 57% 2.0 mph SW3.2 kmh SW 5.0 mph8.0 kmh 29.91 in1012.9 mb 0.00 in0.0 mm 0.00 in0.0 mm 0.00 in0.0 mm
09:20 AM 81.2°F27.3°C 64.5°F18.1°C 57% 2.0 mph SW3.2 kmh SW 5.0 mph8.0 kmh 29.91 in1012.9 mb 0.00 in0.0 mm 0.00 in0.0 mm 0.00 in0.0 mm
09:25 AM 81.3°F27.4°C 64.1°F17.8°C 56% 3.0 mph SW4.8 kmh SW 5.0 mph8.0 kmh 29.91 in1012.9 mb 0.00 in0.0 mm 0.00 in0.0 mm 0.00 in0.0 mm
09:30 AM 81.2°F27.3°C 64.0°F17.8°C 56% 3.0 mph SW4.8 kmh SW 5.0 mph8.0 kmh 29.91 in1012.9 mb 0.00 in0.0 mm 0.00 in0.0 mm 0.00 in0.0 mm
09:35 AM 81.0°F27.2°C 63.8°F17.7°C 56% 3.0 mph WSW4.8 kmh WSW 6.0 mph9.7 kmh 29.91 in1012.9 mb 0.00 in0.0 mm 0.00 in0.0 mm 0.00 in0.0 mm
09:40 AM 80.9°F27.2°C 63.7°F17.6°C 56% 3.0 mph WSW4.8 kmh WSW 7.0 mph11.3 kmh 29.91 in1012.9 mb 0.00 in0.0 mm 0.00 in0.0 mm 0.00 in0.0 mm
09:45 AM 80.8°F27.1°C 64.1°F17.8°C 57% 3.0 mph W4.8 kmh W 7.0 mph11.3 kmh 29.91 in1012.9 mb 0.00 in0.0 mm 0.00 in0.0 mm 0.00 in0.0 mm
09:50 AM 80.8°F27.1°C 64.1°F17.8°C 57% 4.0 mph W6.4 kmh W 7.0 mph11.3 kmh 29.91 in1012.9 mb 0.00 in0.0 mm 0.00 in0.0 mm 0.00 in0.0 mm
09:55 AM 80.8°F27.1°C 64.1°F17.8°C 57% 3.0 mph W4.8 kmh W 7.0 mph11.3 kmh 29.91 in1012.9 mb 0.00 in0.0 mm 0.00 in0.0 mm 0.00 in0.0 mm
10:00 AM 81.0°F27.2°C 64.3°F17.9°C 57% 3.0 mph W4.8 kmh W 6.0 mph9.7 kmh 29.91 in1012.9 mb 0.00 in0.0 mm 0.00 in0.0 mm 0.00 in0.0 mm
10:05 AM 81.1°F27.3°C 64.4°F18.0°C 57% 3.0 mph WNW4.8 kmh WNW 6.0 mph9.7 kmh 29.91 in1012.9 mb 0.00 in0.0 mm 0.00 in0.0 mm 0.00 in0.0 mm
10:10 AM 81.3°F27.4°C 64.1°F17.8°C 56% 3.0 mph NW4.8 kmh NW 6.0 mph9.7 kmh 29.91 in1012.9 mb 0.00 in0.0 mm 0.00 in0.0 mm 0.00 in0.0 mm
10:15 AM 81.5°F27.5°C 64.3°F17.9°C 56% 3.0 mph WNW4.8 kmh WNW 6.0 mph9.7 kmh 29.91 in1012.9 mb 0.00 in0.0 mm 0.00 in0.0 mm 0.00 in0.0 mm
10:20 AM 81.8°F27.7°C 64.6°F18.1°C 56% 3.0 mph WNW4.8 kmh WNW 6.0 mph9.7 kmh 29.91 in1012.9 mb 0.00 in0.0 mm 0.00 in0.0 mm 0.00 in0.0 mm
10:25 AM 82.1°F27.8°C 64.3°F17.9°C 55% 3.0 mph WNW4.8 kmh WNW 6.0 mph9.7 kmh 29.91 in1012.9 mb 0.00 in0.0 mm 0.00 in0.0 mm 0.00 in0.0 mm
10:30 AM 82.3°F27.9°C 64.5°F18.1°C 55% 3.0 mph W4.8 kmh W 7.0 mph11.3 kmh 29.90 in1012.5 mb 0.00 in0.0 mm 0.00 in0.0 mm 0.00 in0.0 mm
10:35 AM 82.2°F27.9°C 63.9°F17.7°C 54% 4.0 mph W6.4 kmh W 8.0 mph12.9 kmh 29.90 in1012.5 mb 0.00 in0.0 mm 0.00 in0.0 mm 0.00 in0.0 mm
10:40 AM 82.1°F27.8°C 64.3°F17.9°C 55% 4.0 mph W6.4 kmh W 8.0 mph12.9 kmh 29.90 in1012.5 mb 0.00 in0.0 mm 0.00 in0.0 mm 0.00 in0.0 mm
10:45 AM 82.1°F27.8°C 63.8°F17.7°C 54% 3.0 mph W4.8 kmh W 8.0 mph12.9 kmh 29.90 in1012.5 mb 0.00 in0.0 mm 0.00 in0.0 mm 0.00 in0.0 mm
10:50 AM 82.2°F27.9°C 64.4°F18.0°C 55% 4.0 mph W6.4 kmh W 8.0 mph12.9 kmh 29.90 in1012.5 mb 0.00 in0.0 mm 0.00 in0.0 mm 0.00 in0.0 mm
10:55 AM 82.3°F27.9°C 64.0°F17.8°C 54% 3.0 mph W4.8 kmh W 8.0 mph12.9 kmh 29.90 in1012.5 mb 0.00 in0.0 mm 0.00 in0.0 mm 0.00 in0.0 mm
11:00 AM 82.5°F28.1°C 64.2°F17.9°C 54% 3.0 mph W4.8 kmh W 8.0 mph12.9 kmh 29.90 in1012.5 mb 0.00 in0.0 mm 0.00 in0.0 mm 0.00 in0.0 mm
11:05 AM 82.8°F28.2°C 64.5°F18.1°C 54% 3.0 mph WNW4.8 kmh WNW 6.0 mph9.7 kmh 29.89 in1012.2 mb 0.00 in0.0 mm 0.00 in0.0 mm 0.00 in0.0 mm
11:10 AM 83.0°F28.3°C 64.6°F18.1°C 54% 3.0 mph WNW4.8 kmh WNW 6.0 mph9.7 kmh 29.89 in1012.2 mb 0.00 in0.0 mm 0.00 in0.0 mm 0.00 in0.0 mm
11:15 AM 83.2°F28.4°C 64.3°F17.9°C 53% 4.0 mph WNW6.4 kmh WNW 8.0 mph12.9 kmh 29.89 in1012.2 mb 0.00 in0.0 mm 0.00 in0.0 mm 0.00 in0.0 mm
11:20 AM 83.3°F28.5°C 64.4°F18.0°C 53% 4.0 mph NW6.4 kmh NW 8.0 mph12.9 kmh 29.89 in1012.2 mb 0.00 in0.0 mm 0.00 in0.0 mm 0.00 in0.0 mm
11:25 AM 83.6°F28.7°C 64.7°F18.2°C 53% 4.0 mph NW6.4 kmh NW 8.0 mph12.9 kmh 29.89 in1012.2 mb 0.00 in0.0 mm 0.00 in0.0 mm 0.00 in0.0 mm
11:30 AM 84.0°F28.9°C 64.5°F18.1°C 52% 4.0 mph WNW6.4 kmh WNW 10.0 mph16.1 kmh 29.89 in1012.2 mb 0.00 in0.0 mm 0.00 in0.0 mm 0.00 in0.0 mm
11:35 AM 84.3°F29.1°C 64.8°F18.2°C 52% 4.0 mph WNW6.4 kmh WNW 10.0 mph16.1 kmh 29.89 in1012.2 mb 0.00 in0.0 mm 0.00 in0.0 mm 0.00 in0.0 mm
11:40 AM 84.4°F29.1°C 64.3°F17.9°C 51% 4.0 mph WNW6.4 kmh WNW 8.0 mph12.9 kmh 29.89 in1012.2 mb 0.00 in0.0 mm 0.00 in0.0 mm 0.00 in0.0 mm
11:45 AM 84.6°F29.2°C 63.9°F17.7°C 50% 4.0 mph W6.4 kmh W 10.0 mph16.1 kmh 29.89 in1012.2 mb 0.00 in0.0 mm 0.00 in0.0 mm 0.00 in0.0 mm
11:50 AM 84.7°F29.3°C 64.0°F17.8°C 50% 5.0 mph WNW8.0 kmh WNW 10.0 mph16.1 kmh 29.88 in1011.9 mb 0.00 in0.0 mm 0.00 in0.0 mm 0.00 in0.0 mm
11:55 AM 84.7°F29.3°C 64.0°F17.8°C 50% 5.0 mph NW8.0 kmh NW 11.0 mph17.7 kmh 29.88 in1011.9 mb 0.00 in0.0 mm 0.00 in0.0 mm 0.00 in0.0 mm
12:00 PM 84.6°F29.2°C 63.3°F17.4°C 49% 5.0 mph NW8.0 kmh NW 11.0 mph17.7 kmh 29.88 in1011.9 mb 0.00 in0.0 mm 0.00 in0.0 mm 0.00 in0.0 mm
12:05 PM 84.7°F29.3°C 64.0°F17.8°C 50% 5.0 mph WNW8.0 kmh WNW 11.0 mph17.7 kmh 29.88 in1011.9 mb 0.00 in0.0 mm 0.00 in0.0 mm 0.00 in0.0 mm
12:10 PM 84.8°F29.3°C 63.5°F17.5°C 49% 5.0 mph NW8.0 kmh NW 11.0 mph17.7 kmh 29.88 in1011.9 mb 0.00 in0.0 mm 0.00 in0.0 mm 0.00 in0.0 mm
12:15 PM 85.1°F29.5°C 63.8°F17.7°C 49% 6.0 mph NW9.7 kmh NW 12.0 mph19.3 kmh 29.87 in1011.5 mb 0.00 in0.0 mm 0.00 in0.0 mm 0.00 in0.0 mm
12:20 PM 85.5°F29.7°C 63.0°F17.2°C 47% 6.0 mph WNW9.7 kmh WNW 12.0 mph19.3 kmh 29.87 in1011.5 mb 0.00 in0.0 mm 0.00 in0.0 mm 0.00 in0.0 mm
12:25 PM 85.5°F29.7°C 63.0°F17.2°C 47% 6.0 mph W9.7 kmh W 11.0 mph17.7 kmh 29.87 in1011.5 mb 0.00 in0.0 mm 0.00 in0.0 mm 0.00 in0.0 mm
12:30 PM 85.4°F29.7°C 63.5°F17.5°C 48% 7.0 mph W11.3 kmh W 12.0 mph19.3 kmh 29.87 in1011.5 mb 0.00 in0.0 mm 0.00 in0.0 mm 0.00 in0.0 mm
12:35 PM 85.1°F29.5°C 63.8°F17.7°C 49% 7.0 mph WNW11.3 kmh WNW 13.0 mph20.9 kmh 29.87 in1011.5 mb 0.00 in0.0 mm 0.00 in0.0 mm 0.00 in0.0 mm
12:40 PM 85.1°F29.5°C 64.4°F18.0°C 50% 7.0 mph W11.3 kmh W 13.0 mph20.9 kmh 29.86 in1011.2 mb 0.00 in0.0 mm 0.00 in0.0 mm 0.00 in0.0 mm
12:45 PM 85.1°F29.5°C 63.8°F17.7°C 49% 6.0 mph WNW9.7 kmh WNW 12.0 mph19.3 kmh 29.87 in1011.5 mb 0.00 in0.0 mm 0.00 in0.0 mm 0.00 in0.0 mm
12:50 PM 85.1°F29.5°C 63.8°F17.7°C 49% 6.0 mph WNW9.7 kmh WNW 12.0 mph19.3 kmh 29.86 in1011.2 mb 0.00 in0.0 mm 0.00 in0.0 mm 0.00 in0.0 mm
12:55 PM 85.3°F29.6°C 64.0°F17.8°C 49% 6.0 mph W9.7 kmh W 12.0 mph19.3 kmh 29.86 in1011.2 mb 0.00 in0.0 mm 0.00 in0.0 mm 0.00 in0.0 mm
01:00 PM 85.7°F29.8°C 63.8°F17.7°C 48% 5.0 mph W8.0 kmh W 12.0 mph19.3 kmh 29.86 in1011.2 mb 0.00 in0.0 mm 0.00 in0.0 mm 0.00 in0.0 mm
01:05 PM 86.2°F30.1°C 63.6°F17.6°C 47% 5.0 mph W8.0 kmh W 12.0 mph19.3 kmh 29.85 in1010.8 mb 0.00 in0.0 mm 0.00 in0.0 mm 0.00 in0.0 mm
01:10 PM 86.6°F30.3°C 64.0°F17.8°C 47% 5.0 mph W8.0 kmh W 13.0 mph20.9 kmh 29.85 in1010.8 mb 0.00 in0.0 mm 0.00 in0.0 mm 0.00 in0.0 mm
01:15 PM 86.9°F30.5°C 63.0°F17.2°C 45% 6.0 mph W9.7 kmh W 13.0 mph20.9 kmh 29.85 in1010.8 mb 0.00 in0.0 mm 0.00 in0.0 mm 0.00 in0.0 mm
01:20 PM 87.1°F30.6°C 62.5°F16.9°C 44% 6.0 mph W9.7 kmh W 11.0 mph17.7 kmh 29.85 in1010.8 mb 0.00 in0.0 mm 0.00 in0.0 mm 0.00 in0.0 mm
01:25 PM 87.6°F30.9°C 62.3°F16.8°C 43% 5.0 mph W8.0 kmh W 10.0 mph16.1 kmh 29.84 in1010.5 mb 0.00 in0.0 mm 0.00 in0.0 mm 0.00 in0.0 mm
01:30 PM 87.9°F31.1°C 61.9°F16.6°C 42% 6.0 mph W9.7 kmh W 11.0 mph17.7 kmh 29.84 in1010.5 mb 0.00 in0.0 mm 0.00 in0.0 mm 0.00 in0.0 mm
01:35 PM 88.0°F31.1°C 62.0°F16.7°C 42% 7.0 mph WNW11.3 kmh WNW 13.0 mph20.9 kmh 29.84 in1010.5 mb 0.00 in0.0 mm 0.00 in0.0 mm 0.00 in0.0 mm
01:40 PM 88.0°F31.1°C 62.0°F16.7°C 42% 7.0 mph W11.3 kmh W 13.0 mph20.9 kmh 29.84 in1010.5 mb 0.00 in0.0 mm 0.00 in0.0 mm 0.00 in0.0 mm
01:45 PM 88.1°F31.2°C 61.4°F16.3°C 41% 6.0 mph WSW9.7 kmh WSW 11.0 mph17.7 kmh 29.84 in1010.5 mb 0.00 in0.0 mm 0.00 in0.0 mm 0.00 in0.0 mm
01:50 PM 88.4°F31.3°C 62.4°F16.9°C 42% 6.0 mph WSW9.7 kmh WSW 11.0 mph17.7 kmh 29.84 in1010.5 mb 0.00 in0.0 mm 0.00 in0.0 mm 0.00 in0.0 mm
01:55 PM 88.6°F31.4°C 61.9°F16.6°C 41% 6.0 mph WSW9.7 kmh WSW 14.0 mph22.5 kmh 29.83 in1010.2 mb 0.00 in0.0 mm 0.00 in0.0 mm 0.00 in0.0 mm
02:00 PM 89.1°F31.7°C 61.6°F16.4°C 40% 6.0 mph WSW9.7 kmh WSW 14.0 mph22.5 kmh 29.83 in1010.2 mb 0.00 in0.0 mm 0.00 in0.0 mm 0.00 in0.0 mm
02:05 PM 89.4°F31.9°C 63.3°F17.4°C 42% 6.0 mph WSW9.7 kmh WSW 12.0 mph19.3 kmh 29.83 in1010.2 mb 0.00 in0.0 mm 0.00 in0.0 mm 0.00 in0.0 mm
02:10 PM 89.6°F32.0°C 62.8°F17.1°C 41% 6.0 mph W9.7 kmh W 12.0 mph19.3 kmh 29.83 in1010.2 mb 0.00 in0.0 mm 0.00 in0.0 mm 0.00 in0.0 mm
02:15 PM 90.2°F32.3°C 62.6°F17.0°C 40% 5.0 mph W8.0 kmh W 11.0 mph17.7 kmh 29.83 in1010.2 mb 0.00 in0.0 mm 0.00 in0.0 mm 0.00 in0.0 mm
02:20 PM 90.6°F32.6°C 62.3°F16.8°C 39% 6.0 mph WNW9.7 kmh WNW 14.0 mph22.5 kmh 29.82 in1009.8 mb 0.00 in0.0 mm 0.00 in0.0 mm 0.00 in0.0 mm
02:25 PM 90.5°F32.5°C 62.9°F17.2°C 40% 6.0 mph W9.7 kmh W 14.0 mph22.5 kmh 29.82 in1009.8 mb 0.00 in0.0 mm 0.00 in0.0 mm 0.00 in0.0 mm
02:30 PM 90.8°F32.7°C 62.4°F16.9°C 39% 6.0 mph W9.7 kmh W 13.0 mph20.9 kmh 29.82 in1009.8 mb 0.00 in0.0 mm 0.00 in0.0 mm 0.00 in0.0 mm
02:35 PM 91.2°F32.9°C 62.0°F16.7°C 38% 6.0 mph WSW9.7 kmh WSW 12.0 mph19.3 kmh 29.82 in1009.8 mb 0.00 in0.0 mm 0.00 in0.0 mm 0.00 in0.0 mm
02:40 PM 91.3°F32.9°C 62.1°F16.7°C 38% 7.0 mph WSW11.3 kmh WSW 13.0 mph20.9 kmh 29.82 in1009.8 mb 0.00 in0.0 mm 0.00 in0.0 mm 0.00 in0.0 mm
02:45 PM 91.3°F32.9°C 62.1°F16.7°C 38% 6.0 mph W9.7 kmh W 13.0 mph20.9 kmh 29.82 in1009.8 mb 0.00 in0.0 mm 0.00 in0.0 mm 0.00 in0.0 mm
02:50 PM 91.6°F33.1°C 61.6°F16.4°C 37% 5.0 mph W8.0 kmh W 14.0 mph22.5 kmh 29.82 in1009.8 mb 0.00 in0.0 mm 0.00 in0.0 mm 0.00 in0.0 mm
02:55 PM 91.5°F33.1°C 61.6°F16.4°C 37% 6.0 mph WSW9.7 kmh WSW 14.0 mph22.5 kmh 29.81 in1009.5 mb 0.00 in0.0 mm 0.00 in0.0 mm 0.00 in0.0 mm
03:00 PM 90.8°F32.7°C 61.7°F16.5°C 38% 7.0 mph WSW11.3 kmh WSW 13.0 mph20.9 kmh 29.81 in1009.5 mb 0.00 in0.0 mm 0.00 in0.0 mm 0.00 in0.0 mm
03:05 PM 90.8°F32.7°C 61.7°F16.5°C 38% 5.0 mph W8.0 kmh W 13.0 mph20.9 kmh 29.81 in1009.5 mb 0.00 in0.0 mm 0.00 in0.0 mm 0.00 in0.0 mm
03:10 PM 91.3°F32.9°C 61.4°F16.3°C 37% 4.0 mph WSW6.4 kmh WSW 10.0 mph16.1 kmh 29.80 in1009.1 mb 0.00 in0.0 mm 0.00 in0.0 mm 0.00 in0.0 mm
03:15 PM 91.3°F32.9°C 61.4°F16.3°C 37% 5.0 mph WSW8.0 kmh WSW 10.0 mph16.1 kmh 29.80 in1009.1 mb 0.00 in0.0 mm 0.00 in0.0 mm 0.00 in0.0 mm
03:20 PM 91.4°F33.0°C 62.2°F16.8°C 38% 6.0 mph WSW9.7 kmh WSW 10.0 mph16.1 kmh 29.80 in1009.1 mb 0.00 in0.0 mm 0.00 in0.0 mm 0.00 in0.0 mm
03:25 PM 91.9°F33.3°C 62.7°F17.1°C 38% 4.0 mph W6.4 kmh W 9.0 mph14.5 kmh 29.80 in1009.1 mb 0.00 in0.0 mm 0.00 in0.0 mm 0.00 in0.0 mm
03:30 PM 92.2°F33.4°C 62.2°F16.8°C 37% 4.0 mph WNW6.4 kmh WNW 10.0 mph16.1 kmh 29.80 in1009.1 mb 0.00 in0.0 mm 0.00 in0.0 mm 0.00 in0.0 mm
03:35 PM 92.3°F33.5°C 62.3°F16.8°C 37% 4.0 mph W6.4 kmh W 10.0 mph16.1 kmh 29.79 in1008.8 mb 0.00 in0.0 mm 0.00 in0.0 mm 0.00 in0.0 mm
03:40 PM 92.4°F33.6°C 62.4°F16.9°C 37% 3.0 mph WSW4.8 kmh WSW 8.0 mph12.9 kmh 29.79 in1008.8 mb 0.00 in0.0 mm 0.00 in0.0 mm 0.00 in0.0 mm
03:45 PM 91.6°F33.1°C 62.4°F16.9°C 38% 5.0 mph W8.0 kmh W 11.0 mph17.7 kmh 29.79 in1008.8 mb 0.00 in0.0 mm 0.00 in0.0 mm 0.00 in0.0 mm
03:50 PM 91.2°F32.9°C 62.0°F16.7°C 38% 5.0 mph W8.0 kmh W 11.0 mph17.7 kmh 29.79 in1008.8 mb 0.00 in0.0 mm 0.00 in0.0 mm 0.00 in0.0 mm
03:55 PM 90.9°F32.7°C 62.5°F16.9°C 39% 5.0 mph W8.0 kmh W 9.0 mph14.5 kmh 29.79 in1008.8 mb 0.00 in0.0 mm 0.00 in0.0 mm 0.00 in0.0 mm
04:00 PM 90.4°F32.4°C 63.5°F17.5°C 41% 6.0 mph WNW9.7 kmh WNW 15.0 mph24.1 kmh 29.79 in1008.8 mb 0.00 in0.0 mm 0.00 in0.0 mm 0.00 in0.0 mm
04:05 PM 88.7°F31.5°C 63.3°F17.4°C 43% 9.0 mph NW14.5 kmh NW 18.0 mph29.0 kmh 29.79 in1008.8 mb 0.00 in0.0 mm 0.00 in0.0 mm 0.00 in0.0 mm
04:10 PM 87.0°F30.6°C 63.7°F17.6°C 46% 11.0 mph NW17.7 kmh NW 19.0 mph30.6 kmh 29.79 in1008.8 mb 0.00 in0.0 mm 0.00 in0.0 mm 0.00 in0.0 mm
04:15 PM 85.0°F29.4°C 62.5°F16.9°C 47% 12.0 mph NW19.3 kmh NW 25.0 mph40.2 kmh 29.80 in1009.1 mb 0.00 in0.0 mm 0.00 in0.0 mm 0.00 in0.0 mm
04:20 PM 82.2°F27.9°C 62.3°F16.8°C 51% 12.0 mph NNW19.3 kmh NNW 25.0 mph40.2 kmh 29.80 in1009.1 mb 0.00 in0.0 mm 0.00 in0.0 mm 0.00 in0.0 mm
04:25 PM 79.1°F26.2°C 63.1°F17.3°C 58% 11.0 mph NNW17.7 kmh NNW 21.0 mph33.8 kmh 29.81 in1009.5 mb 0.00 in0.0 mm 0.00 in0.0 mm 0.00 in0.0 mm
04:30 PM 77.1°F25.1°C 63.5°F17.5°C 63% 10.0 mph N16.1 kmh N 20.0 mph32.2 kmh 29.82 in1009.8 mb 0.00 in0.0 mm 0.00 in0.0 mm 0.00 in0.0 mm
04:35 PM 75.8°F24.3°C 63.6°F17.6°C 66% 9.0 mph NNE14.5 kmh NNE 17.0 mph27.4 kmh 29.84 in1010.5 mb 0.00 in0.0 mm 0.00 in0.0 mm 0.00 in0.0 mm
04:40 PM 74.4°F23.6°C 64.8°F18.2°C 72% 9.0 mph NE14.5 kmh NE 17.0 mph27.4 kmh 29.85 in1010.8 mb 0.02 in0.5 mm 0.24 in6.1 mm 0.02 in0.5 mm
04:45 PM 72.6°F22.6°C 64.6°F18.1°C 76% 7.0 mph NE11.3 kmh NE 17.0 mph27.4 kmh 29.85 in1010.8 mb 0.05 in1.3 mm 0.36 in9.1 mm 0.05 in1.3 mm
04:50 PM 71.7°F22.1°C 64.8°F18.2°C 79% 6.0 mph ENE9.7 kmh ENE 17.0 mph27.4 kmh 29.85 in1010.8 mb 0.18 in4.6 mm 1.56 in39.6 mm 0.18 in4.6 mm
04:55 PM 71.3°F21.8°C 64.8°F18.2°C 80% 4.0 mph SE6.4 kmh SE 11.0 mph17.7 kmh 29.83 in1010.2 mb 0.24 in6.1 mm 0.72 in18.3 mm 0.24 in6.1 mm
05:00 PM 71.0°F21.7°C 64.5°F18.1°C 80% 2.0 mph S3.2 kmh S 6.0 mph9.7 kmh 29.82 in1009.8 mb 0.28 in7.1 mm 0.04 in1.0 mm 0.28 in7.1 mm
05:05 PM 71.0°F21.7°C 65.2°F18.4°C 82% 3.0 mph SSW4.8 kmh SSW 9.0 mph14.5 kmh 29.82 in1009.8 mb 0.31 in7.9 mm 0.36 in9.1 mm 0.31 in7.9 mm
05:10 PM 70.7°F21.5°C 64.9°F18.3°C 82% 4.0 mph NW6.4 kmh NW 10.0 mph16.1 kmh 29.83 in1010.2 mb 0.32 in8.1 mm 0.12 in3.0 mm 0.32 in8.1 mm
05:15 PM 70.2°F21.2°C 64.1°F17.8°C 81% 5.0 mph N8.0 kmh N 10.0 mph16.1 kmh 29.83 in1010.2 mb 0.32 in8.1 mm 0.00 in0.0 mm 0.32 in8.1 mm
05:20 PM 70.2°F21.2°C 64.4°F18.0°C 82% 3.0 mph NNE4.8 kmh NNE 8.0 mph12.9 kmh 29.82 in1009.8 mb 0.32 in8.1 mm 0.00 in0.0 mm 0.32 in8.1 mm
05:25 PM 70.4°F21.3°C 65.3°F18.5°C 84% 2.0 mph NE3.2 kmh NE 6.0 mph9.7 kmh 29.82 in1009.8 mb 0.32 in8.1 mm 0.00 in0.0 mm 0.32 in8.1 mm
05:30 PM 70.4°F21.3°C 65.0°F18.3°C 83% 3.0 mph ENE4.8 kmh ENE 5.0 mph8.0 kmh 29.82 in1009.8 mb 0.32 in8.1 mm 0.00 in0.0 mm 0.32 in8.1 mm
05:35 PM 70.5°F21.4°C 65.1°F18.4°C 83% 4.0 mph ENE6.4 kmh ENE 9.0 mph14.5 kmh 29.81 in1009.5 mb 0.32 in8.1 mm 0.00 in0.0 mm 0.32 in8.1 mm
05:40 PM 70.6°F21.4°C 65.5°F18.6°C 84% 5.0 mph E8.0 kmh E 9.0 mph14.5 kmh 29.80 in1009.1 mb 0.30 in7.6 mm 0.00 in0.0 mm 0.32 in8.1 mm
05:45 PM 70.7°F21.5°C 64.9°F18.3°C 82% 4.0 mph E6.4 kmh E 8.0 mph12.9 kmh 29.80 in1009.1 mb 0.27 in6.9 mm 0.00 in0.0 mm 0.32 in8.1 mm
05:50 PM 70.9°F21.6°C 65.1°F18.4°C 82% 2.0 mph E3.2 kmh E 7.0 mph11.3 kmh 29.80 in1009.1 mb 0.14 in3.6 mm 0.00 in0.0 mm 0.32 in8.1 mm
05:55 PM 71.3°F21.8°C 65.5°F18.6°C 82% 2.0 mph E3.2 kmh E 4.0 mph6.4 kmh 29.81 in1009.5 mb 0.08 in2.0 mm 0.00 in0.0 mm 0.32 in8.1 mm
06:00 PM 71.6°F22.0°C 66.2°F19.0°C 83% 2.0 mph E3.2 kmh E 4.0 mph6.4 kmh 29.82 in1009.8 mb 0.03 in0.8 mm 0.00 in0.0 mm 0.32 in8.1 mm
06:05 PM 71.9°F22.2°C 65.8°F18.8°C 81% 2.0 mph E3.2 kmh E 4.0 mph6.4 kmh 29.82 in1009.8 mb 0.01 in0.3 mm 0.00 in0.0 mm 0.32 in8.1 mm
06:10 PM 72.1°F22.3°C 65.6°F18.7°C 80% 2.0 mph E3.2 kmh E 4.0 mph6.4 kmh 29.82 in1009.8 mb 0.00 in0.0 mm 0.00 in0.0 mm 0.32 in8.1 mm
06:15 PM 72.4°F22.4°C 65.9°F18.8°C 80% 1.0 mph E1.6 kmh E 4.0 mph6.4 kmh 29.82 in1009.8 mb 0.00 in0.0 mm 0.00 in0.0 mm 0.32 in8.1 mm
06:20 PM 72.6°F22.6°C 65.7°F18.7°C 79% 2.0 mph NE3.2 kmh NE 5.0 mph8.0 kmh 29.83 in1010.2 mb 0.00 in0.0 mm 0.00 in0.0 mm 0.32 in8.1 mm
06:25 PM 72.9°F22.7°C 66.4°F19.1°C 80% 3.0 mph NE4.8 kmh NE 6.0 mph9.7 kmh 29.83 in1010.2 mb 0.00 in0.0 mm 0.00 in0.0 mm 0.32 in8.1 mm
06:30 PM 72.9°F22.7°C 67.1°F19.5°C 82% 3.0 mph NE4.8 kmh NE 6.0 mph9.7 kmh 29.83 in1010.2 mb 0.00 in0.0 mm 0.00 in0.0 mm 0.32 in8.1 mm
06:35 PM 72.9°F22.7°C 66.7°F19.3°C 81% 3.0 mph NE4.8 kmh NE 8.0 mph12.9 kmh 29.83 in1010.2 mb 0.00 in0.0 mm 0.00 in0.0 mm 0.32 in8.1 mm
06:40 PM 72.7°F22.6°C 66.2°F19.0°C 80% 3.0 mph ENE4.8 kmh ENE 8.0 mph12.9 kmh 29.84 in1010.5 mb 0.00 in0.0 mm 0.00 in0.0 mm 0.32 in8.1 mm
06:45 PM 72.8°F22.7°C 67.0°F19.4°C 82% 3.0 mph E4.8 kmh E 7.0 mph11.3 kmh 29.84 in1010.5 mb 0.00 in0.0 mm 0.00 in0.0 mm 0.32 in8.1 mm
06:50 PM 72.7°F22.6°C 67.6°F19.8°C 84% 4.0 mph E6.4 kmh E 10.0 mph16.1 kmh 29.85 in1010.8 mb 0.04 in1.0 mm 0.48 in12.2 mm 0.36 in9.1 mm
06:55 PM 72.6°F22.6°C 67.1°F19.5°C 83% 3.0 mph E4.8 kmh E 10.0 mph16.1 kmh 29.84 in1010.5 mb 0.04 in1.0 mm 0.00 in0.0 mm 0.36 in9.1 mm
07:00 PM 72.4°F22.4°C 66.9°F19.4°C 83% 2.0 mph SE3.2 kmh SE 5.0 mph8.0 kmh 29.83 in1010.2 mb 0.04 in1.0 mm 0.00 in0.0 mm 0.36 in9.1 mm
07:05 PM 72.3°F22.4°C 66.8°F19.3°C 83% 2.0 mph S3.2 kmh S 4.0 mph6.4 kmh 29.83 in1010.2 mb 0.04 in1.0 mm 0.00 in0.0 mm 0.36 in9.1 mm
07:10 PM 72.3°F22.4°C 67.2°F19.6°C 84% 2.0 mph S3.2 kmh S 4.0 mph6.4 kmh 29.82 in1009.8 mb 0.04 in1.0 mm 0.00 in0.0 mm 0.36 in9.1 mm
07:15 PM 72.3°F22.4°C 67.2°F19.6°C 84% 1.0 mph SSW1.6 kmh SSW 4.0 mph6.4 kmh 29.82 in1009.8 mb 0.04 in1.0 mm 0.00 in0.0 mm 0.36 in9.1 mm
07:20 PM 72.4°F22.4°C 67.6°F19.8°C 85% 2.0 mph SSW3.2 kmh SSW 3.0 mph4.8 kmh 29.83 in1010.2 mb 0.04 in1.0 mm 0.00 in0.0 mm 0.36 in9.1 mm
07:25 PM 72.4°F22.4°C 67.6°F19.8°C 85% 2.0 mph SSW3.2 kmh SSW 3.0 mph4.8 kmh 29.83 in1010.2 mb 0.04 in1.0 mm 0.00 in0.0 mm 0.36 in9.1 mm
07:30 PM 72.6°F22.6°C 68.2°F20.1°C 86% 2.0 mph S3.2 kmh S 5.0 mph8.0 kmh 29.83 in1010.2 mb 0.04 in1.0 mm 0.00 in0.0 mm 0.36 in9.1 mm
07:35 PM 72.6°F22.6°C 67.8°F19.9°C 85% 2.0 mph NNE3.2 kmh NNE 5.0 mph8.0 kmh 29.83 in1010.2 mb 0.04 in1.0 mm 0.00 in0.0 mm 0.36 in9.1 mm
07:40 PM 72.6°F22.6°C 67.8°F19.9°C 85% 2.0 mph N3.2 kmh N 5.0 mph8.0 kmh 29.84 in1010.5 mb 0.04 in1.0 mm 0.00 in0.0 mm 0.36 in9.1 mm
07:45 PM 72.7°F22.6°C 67.9°F19.9°C 85% 1.0 mph N1.6 kmh N 3.0 mph4.8 kmh 29.84 in1010.5 mb 0.04 in1.0 mm 0.00 in0.0 mm 0.38 in9.7 mm
07:50 PM 72.7°F22.6°C 67.9°F19.9°C 85% 1.0 mph N1.6 kmh N 3.0 mph4.8 kmh 29.84 in1010.5 mb 0.00 in0.0 mm 0.00 in0.0 mm 0.38 in9.7 mm
07:55 PM 72.8°F22.7°C 68.4°F20.2°C 86% 1.0 mph N1.6 kmh N 3.0 mph4.8 kmh 29.84 in1010.5 mb 0.00 in0.0 mm 0.00 in0.0 mm 0.38 in9.7 mm
08:00 PM 72.9°F22.7°C 68.5°F20.3°C 86% 1.0 mph NNE1.6 kmh NNE 3.0 mph4.8 kmh 29.84 in1010.5 mb 0.00 in0.0 mm 0.00 in0.0 mm 0.38 in9.7 mm
08:05 PM 72.8°F22.7°C 68.4°F20.2°C 86% 2.0 mph E3.2 kmh E 4.0 mph6.4 kmh 29.84 in1010.5 mb 0.00 in0.0 mm 0.00 in0.0 mm 0.38 in9.7 mm
08:10 PM 72.9°F22.7°C 68.5°F20.3°C 86% 3.0 mph S4.8 kmh S 7.0 mph11.3 kmh 29.85 in1010.8 mb 0.00 in0.0 mm 0.00 in0.0 mm 0.38 in9.7 mm
08:15 PM 72.9°F22.7°C 68.1°F20.1°C 85% 4.0 mph S6.4 kmh S 7.0 mph11.3 kmh 29.85 in1010.8 mb 0.00 in0.0 mm 0.00 in0.0 mm 0.38 in9.7 mm
08:20 PM 72.9°F22.7°C 68.1°F20.1°C 85% 3.0 mph SSW4.8 kmh SSW 6.0 mph9.7 kmh 29.85 in1010.8 mb 0.00 in0.0 mm 0.00 in0.0 mm 0.38 in9.7 mm
08:25 PM 72.9°F22.7°C 67.8°F19.9°C 84% 3.0 mph S4.8 kmh S 6.0 mph9.7 kmh 29.85 in1010.8 mb 0.00 in0.0 mm 0.00 in0.0 mm 0.38 in9.7 mm
08:30 PM 72.9°F22.7°C 66.7°F19.3°C 81% 3.0 mph S4.8 kmh S 7.0 mph11.3 kmh 29.85 in1010.8 mb 0.00 in0.0 mm 0.00 in0.0 mm 0.38 in9.7 mm
08:35 PM 73.0°F22.8°C 66.8°F19.3°C 81% 3.0 mph SSE4.8 kmh SSE 7.0 mph11.3 kmh 29.85 in1010.8 mb 0.00 in0.0 mm 0.00 in0.0 mm 0.38 in9.7 mm
08:40 PM 73.1°F22.8°C 66.9°F19.4°C 81% 2.0 mph SE3.2 kmh SE 7.0 mph11.3 kmh 29.85 in1010.8 mb 0.00 in0.0 mm 0.00 in0.0 mm 0.38 in9.7 mm
08:45 PM 73.2°F22.9°C 66.7°F19.3°C 80% 1.0 mph SE1.6 kmh SE 7.0 mph11.3 kmh 29.86 in1011.2 mb 0.00 in0.0 mm 0.00 in0.0 mm 0.38 in9.7 mm
08:50 PM 73.3°F22.9°C 67.1°F19.5°C 81% 1.0 mph ESE1.6 kmh ESE 3.0 mph4.8 kmh 29.86 in1011.2 mb 0.00 in0.0 mm 0.00 in0.0 mm 0.38 in9.7 mm
08:55 PM 73.3°F22.9°C 66.8°F19.3°C 80% 2.0 mph NE3.2 kmh NE 4.0 mph6.4 kmh 29.87 in1011.5 mb 0.00 in0.0 mm 0.00 in0.0 mm 0.38 in9.7 mm
09:00 PM 73.4°F23.0°C 66.9°F19.4°C 80% 2.0 mph NNW3.2 kmh NNW 4.0 mph6.4 kmh 29.87 in1011.5 mb 0.00 in0.0 mm 0.00 in0.0 mm 0.38 in9.7 mm
09:05 PM 73.5°F23.1°C 67.3°F19.6°C 81% 2.0 mph N3.2 kmh N 5.0 mph8.0 kmh 29.87 in1011.5 mb 0.00 in0.0 mm 0.00 in0.0 mm 0.38 in9.7 mm
09:10 PM 73.6°F23.1°C 67.4°F19.7°C 81% 2.0 mph NNE3.2 kmh NNE 5.0 mph8.0 kmh 29.87 in1011.5 mb 0.00 in0.0 mm 0.00 in0.0 mm 0.38 in9.7 mm
09:15 PM 73.5°F23.1°C 67.3°F19.6°C 81% 1.0 mph NNE1.6 kmh NNE 4.0 mph6.4 kmh 29.87 in1011.5 mb 0.00 in0.0 mm 0.00 in0.0 mm 0.38 in9.7 mm
09:20 PM 73.5°F23.1°C 66.9°F19.4°C 80% 1.0 mph NE1.6 kmh NE 3.0 mph4.8 kmh 29.88 in1011.9 mb 0.00 in0.0 mm 0.00 in0.0 mm 0.38 in9.7 mm
09:25 PM 73.5°F23.1°C 66.9°F19.4°C 80% 1.0 mph NE1.6 kmh NE 3.0 mph4.8 kmh 29.87 in1011.5 mb 0.00 in0.0 mm 0.00 in0.0 mm 0.38 in9.7 mm
09:30 PM 73.5°F23.1°C 66.9°F19.4°C 80% 1.0 mph NE1.6 kmh NE 3.0 mph4.8 kmh 29.87 in1011.5 mb 0.00 in0.0 mm 0.00 in0.0 mm 0.38 in9.7 mm
09:35 PM 73.4°F23.0°C 66.9°F19.4°C 80% Calm Calm 1.0 mph1.6 kmh 29.87 in1011.5 mb 0.00 in0.0 mm 0.00 in0.0 mm 0.38 in9.7 mm
09:40 PM 73.4°F23.0°C 67.2°F19.6°C 81% Calm Calm 2.0 mph3.2 kmh 29.87 in1011.5 mb 0.00 in0.0 mm 0.00 in0.0 mm 0.38 in9.7 mm
09:45 PM 73.4°F23.0°C 67.6°F19.8°C 82% 1.0 mph E1.6 kmh E 3.0 mph4.8 kmh 29.88 in1011.9 mb 0.00 in0.0 mm 0.00 in0.0 mm 0.38 in9.7 mm
09:50 PM 73.4°F23.0°C 67.6°F19.8°C 82% 1.0 mph NE1.6 kmh NE 3.0 mph4.8 kmh 29.87 in1011.5 mb 0.00 in0.0 mm 0.00 in0.0 mm 0.38 in9.7 mm
09:55 PM 73.3°F22.9°C 67.1°F19.5°C 81% Calm Calm 3.0 mph4.8 kmh 29.87 in1011.5 mb 0.00 in0.0 mm 0.00 in0.0 mm 0.38 in9.7 mm
10:00 PM 73.3°F22.9°C 67.5°F19.7°C 82% Calm Calm 2.0 mph3.2 kmh 29.86 in1011.2 mb 0.00 in0.0 mm 0.00 in0.0 mm 0.38 in9.7 mm
10:05 PM 73.3°F22.9°C 67.5°F19.7°C 82% Calm Calm 2.0 mph3.2 kmh 29.86 in1011.2 mb 0.00 in0.0 mm 0.00 in0.0 mm 0.38 in9.7 mm
10:10 PM 73.3°F22.9°C 67.1°F19.5°C 81% Calm Calm -- 29.87 in1011.5 mb 0.00 in0.0 mm 0.00 in0.0 mm 0.38 in9.7 mm
10:15 PM 73.3°F22.9°C 67.5°F19.7°C 82% Calm Calm -- 29.87 in1011.5 mb 0.00 in0.0 mm 0.00 in0.0 mm 0.38 in9.7 mm
10:20 PM 73.4°F23.0°C 67.6°F19.8°C 82% Calm Calm -- 29.86 in1011.2 mb 0.00 in0.0 mm 0.00 in0.0 mm 0.38 in9.7 mm
10:25 PM 73.4°F23.0°C 67.6°F19.8°C 82% Calm Calm -- 29.86 in1011.2 mb 0.00 in0.0 mm 0.00 in0.0 mm 0.38 in9.7 mm
10:30 PM 73.4°F23.0°C 67.6°F19.8°C 82% Calm Calm -- 29.86 in1011.2 mb 0.00 in0.0 mm 0.00 in0.0 mm 0.38 in9.7 mm
10:35 PM 73.4°F23.0°C 67.9°F19.9°C 83% Calm Calm -- 29.86 in1011.2 mb 0.00 in0.0 mm 0.00 in0.0 mm 0.38 in9.7 mm
10:40 PM 73.4°F23.0°C 67.6°F19.8°C 82% Calm Calm -- 29.86 in1011.2 mb 0.00 in0.0 mm 0.00 in0.0 mm 0.38 in9.7 mm
10:45 PM 73.3°F22.9°C 67.5°F19.7°C 82% Calm Calm -- 29.86 in1011.2 mb 0.00 in0.0 mm 0.00 in0.0 mm 0.38 in9.7 mm
10:50 PM 73.2°F22.9°C 67.0°F19.4°C 81% Calm Calm -- 29.86 in1011.2 mb 0.00 in0.0 mm 0.00 in0.0 mm 0.38 in9.7 mm
10:55 PM 73.2°F22.9°C 67.4°F19.7°C 82% Calm Calm -- 29.86 in1011.2 mb 0.00 in0.0 mm 0.00 in0.0 mm 0.38 in9.7 mm
11:00 PM 73.2°F22.9°C 67.7°F19.8°C 83% Calm Calm -- 29.86 in1011.2 mb 0.00 in0.0 mm 0.00 in0.0 mm 0.38 in9.7 mm
11:05 PM 73.2°F22.9°C 67.7°F19.8°C 83% Calm Calm 2.0 mph3.2 kmh 29.86 in1011.2 mb 0.00 in0.0 mm 0.00 in0.0 mm 0.38 in9.7 mm
11:10 PM 73.2°F22.9°C 67.7°F19.8°C 83% Calm Calm 2.0 mph3.2 kmh 29.86 in1011.2 mb 0.00 in0.0 mm 0.00 in0.0 mm 0.38 in9.7 mm
11:15 PM 73.1°F22.8°C 67.6°F19.8°C 83% 1.0 mph NW1.6 kmh NW 4.0 mph6.4 kmh 29.86 in1011.2 mb 0.00 in0.0 mm 0.00 in0.0 mm 0.38 in9.7 mm
11:20 PM 73.2°F22.9°C 67.7°F19.8°C 83% 1.0 mph WSW1.6 kmh WSW 4.0 mph6.4 kmh 29.87 in1011.5 mb 0.00 in0.0 mm 0.00 in0.0 mm 0.38 in9.7 mm
11:25 PM 73.3°F22.9°C 67.8°F19.9°C 83% 1.0 mph S1.6 kmh S 3.0 mph4.8 kmh 29.87 in1011.5 mb 0.00 in0.0 mm 0.00 in0.0 mm 0.38 in9.7 mm
11:30 PM 73.3°F22.9°C 67.8°F19.9°C 83% Calm Calm 2.0 mph3.2 kmh 29.88 in1011.9 mb 0.00 in0.0 mm 0.00 in0.0 mm 0.38 in9.7 mm
11:35 PM 73.4°F23.0°C 68.3°F20.2°C 84% Calm Calm 1.0 mph1.6 kmh 29.88 in1011.9 mb 0.00 in0.0 mm 0.00 in0.0 mm 0.38 in9.7 mm
11:40 PM 73.3°F22.9°C 67.8°F19.9°C 83% Calm Calm 2.0 mph3.2 kmh 29.88 in1011.9 mb 0.00 in0.0 mm 0.00 in0.0 mm 0.38 in9.7 mm
11:45 PM 73.2°F22.9°C 67.7°F19.8°C 83% Calm Calm 2.0 mph3.2 kmh 29.88 in1011.9 mb 0.00 in0.0 mm 0.00 in0.0 mm 0.38 in9.7 mm
11:50 PM 73.2°F22.9°C 67.7°F19.8°C 83% Calm Calm 3.0 mph4.8 kmh 29.88 in1011.9 mb 0.00 in0.0 mm 0.00 in0.0 mm 0.38 in9.7 mm
11:55 PM 73.1°F22.8°C 68.0°F20.0°C 84% 1.0 mph S1.6 kmh S 3.0 mph4.8 kmh 29.88 in1011.9 mb 0.00 in0.0 mm 0.00 in0.0 mm 0.38 in9.7 mm